Drasco, Arkansas
Current Conditions -  °F | °C
As of 2:35 PM on Sunday 28 Dec 2014 (Local Time) from KBVX Reporting Station
Clear Clear  
Wind Chill: 34°   Ceiling: Unl
Heat Index: 37°   Visibility: 10mi
Dew Point: 27°   Wind: 5mph
Humidity: 65%   Direction: 350°N
Pressure: 30.18"   Gusts: NA
Location:  35.63°N, 91.95°W
Report Text: KBVX 282035Z AUTO 35004KT 10SM CLR 03/M03 A3018 RMK AO1
Loading
Personal Weather Stations






























Interactive Weather Map New forecast layout! Learn more

10-Day Weather Forecast

Advertisements
Track Severe Weather on mobile